sensor_id;sensor_type;location;lat;lon;timestamp;pressure;altitude;pressure_sealevel;temperature;humidity
76124;BME280;65173;48.066;20.976;2023-09-19T00:00:15;100102.34;;;19.33;100.00
76124;BME280;65173;48.066;20.976;2023-09-19T00:03:21;100108.13;;;19.32;100.00
76124;BME280;65173;48.066;20.976;2023-09-19T00:06:28;100110.88;;;19.42;100.00
76124;BME280;65173;48.066;20.976;2023-09-19T00:09:33;100100.03;;;19.39;100.00
76124;BME280;65173;48.066;20.976;2023-09-19T00:12:43;100100.78;;;19.36;100.00
76124;BME280;65173;48.066;20.976;2023-09-19T00:15:47;100093.78;;;19.28;100.00
76124;BME280;65173;48.066;20.976;2023-09-19T00:18:53;100086.44;;;19.25;100.00
76124;BME280;65173;48.066;20.976;2023-09-19T00:21:55;100098.09;;;19.32;100.00
76124;BME280;65173;48.066;20.976;2023-09-19T00:24:58;100103.69;;;19.61;100.00
76124;BME280;65173;48.066;20.976;2023-09-19T00:28:01;100099.31;;;19.46;100.00
76124;BME280;65173;48.066;20.976;2023-09-19T00:31:03;100099.22;;;19.31;100.00
76124;BME280;65173;48.066;20.976;2023-09-19T00:34:07;100080.63;;;19.23;100.00
76124;BME280;65173;48.066;20.976;2023-09-19T00:37:12;100069.25;;;18.96;100.00
76124;BME280;65173;48.066;20.976;2023-09-19T00:40:15;100081.25;;;18.98;100.00
76124;BME280;65173;48.066;20.976;2023-09-19T00:43:18;100072.13;;;18.73;100.00
76124;BME280;65173;48.066;20.976;2023-09-19T00:46:21;100099.59;;;18.79;100.00
76124;BME280;65173;48.066;20.976;2023-09-19T00:49:23;100103.09;;;18.86;100.00
76124;BME280;65173;48.066;20.976;2023-09-19T00:52:27;100067.97;;;18.46;100.00
76124;BME280;65173;48.066;20.976;2023-09-19T00:55:30;100065.88;;;18.25;100.00
76124;BME280;65173;48.066;20.976;2023-09-19T00:58:36;100074.78;;;18.32;100.00
76124;BME280;65173;48.066;20.976;2023-09-19T01:01:39;100076.47;;;18.44;100.00
76124;BME280;65173;48.066;20.976;2023-09-19T01:04:42;100069.75;;;18.31;100.00
76124;BME280;65173;48.066;20.976;2023-09-19T01:07:45;100058.50;;;18.22;100.00
76124;BME280;65173;48.066;20.976;2023-09-19T01:10:52;100048.44;;;18.19;100.00
76124;BME280;65173;48.066;20.976;2023-09-19T01:14:04;100048.06;;;18.20;100.00
76124;BME280;65173;48.066;20.976;2023-09-19T01:17:25;100028.00;;;18.18;100.00
76124;BME280;65173;48.066;20.976;2023-09-19T01:23:53;100048.81;;;18.17;100.00
76124;BME280;65173;48.066;20.976;2023-09-19T01:27:17;100050.25;;;18.08;100.00
76124;BME280;65173;48.066;20.976;2023-09-19T01:30:26;100051.31;;;17.99;100.00
76124;BME280;65173;48.066;20.976;2023-09-19T01:33:55;100057.84;;;17.98;100.00
76124;BME280;65173;48.066;20.976;2023-09-19T01:37:02;100049.19;;;17.82;100.00
76124;BME280;65173;48.066;20.976;2023-09-19T01:40:07;100050.75;;;17.83;100.00
76124;BME280;65173;48.066;20.976;2023-09-19T01:46:25;100057.38;;;17.93;100.00
76124;BME280;65173;48.066;20.976;2023-09-19T01:49:42;100055.25;;;17.76;100.00
76124;BME280;65173;48.066;20.976;2023-09-19T01:52:54;100046.25;;;17.64;100.00
76124;BME280;65173;48.066;20.976;2023-09-19T01:55:59;100044.22;;;17.58;100.00
76124;BME280;65173;48.066;20.976;2023-09-19T01:59:10;100031.84;;;17.53;100.00
76124;BME280;65173;48.066;20.976;2023-09-19T02:02:14;100022.88;;;17.46;100.00
76124;BME280;65173;48.066;20.976;2023-09-19T02:05:23;100026.72;;;17.45;100.00
76124;BME280;65173;48.066;20.976;2023-09-19T02:08:27;100029.41;;;17.45;100.00
76124;BME280;65173;48.066;20.976;2023-09-19T02:11:29;100036.00;;;17.47;100.00
76124;BME280;65173;48.066;20.976;2023-09-19T02:14:32;100035.16;;;17.43;100.00
76124;BME280;65173;48.066;20.976;2023-09-19T02:17:34;100031.03;;;17.49;100.00
76124;BME280;65173;48.066;20.976;2023-09-19T02:20:37;100031.44;;;17.51;100.00
76124;BME280;65173;48.066;20.976;2023-09-19T02:23:40;100022.59;;;17.51;100.00
76124;BME280;65173;48.066;20.976;2023-09-19T02:26:43;100022.63;;;17.54;100.00
76124;BME280;65173;48.066;20.976;2023-09-19T02:29:46;100022.66;;;17.58;100.00
76124;BME280;65173;48.066;20.976;2023-09-19T02:32:49;100014.38;;;17.44;100.00
76124;BME280;65173;48.066;20.976;2023-09-19T02:35:56;100006.91;;;17.30;100.00
76124;BME280;65173;48.066;20.976;2023-09-19T02:39:00;99997.94;;;17.22;100.00
76124;BME280;65173;48.066;20.976;2023-09-19T02:42:02;99997.91;;;17.19;100.00
76124;BME280;65173;48.066;20.976;2023-09-19T02:45:06;99989.06;;;17.18;100.00
76124;BME280;65173;48.066;20.976;2023-09-19T02:48:09;99989.13;;;17.25;100.00
76124;BME280;65173;48.066;20.976;2023-09-19T02:51:14;99982.34;;;17.35;100.00
76124;BME280;65173;48.066;20.976;2023-09-19T02:54:16;99982.75;;;17.37;100.00
76124;BME280;65173;48.066;20.976;2023-09-19T02:57:20;99985.41;;;17.33;100.00
76124;BME280;65173;48.066;20.976;2023-09-19T03:00:23;99970.31;;;17.29;100.00
76124;BME280;65173;48.066;20.976;2023-09-19T03:03:26;99955.19;;;17.17;100.00
76124;BME280;65173;48.066;20.976;2023-09-19T03:06:31;99952.06;;;17.15;100.00
76124;BME280;65173;48.066;20.976;2023-09-19T03:09:34;99952.84;;;17.16;100.00
76124;BME280;65173;48.066;20.976;2023-09-19T03:12:36;99949.78;;;17.17;100.00
76124;BME280;65173;48.066;20.976;2023-09-19T03:15:43;99953.28;;;17.21;100.00
76124;BME280;65173;48.066;20.976;2023-09-19T03:18:57;99945.53;;;17.16;100.00
76124;BME280;65173;48.066;20.976;2023-09-19T03:22:03;99941.34;;;17.19;100.00
76124;BME280;65173;48.066;20.976;2023-09-19T03:25:07;99940.56;;;17.18;100.00
76124;BME280;65173;48.066;20.976;2023-09-19T03:28:15;99945.97;;;17.18;100.00
76124;BME280;65173;48.066;20.976;2023-09-19T03:31:18;99949.00;;;17.17;100.00
76124;BME280;65173;48.066;20.976;2023-09-19T03:34:22;99946.84;;;17.29;100.00
76124;BME280;65173;48.066;20.976;2023-09-19T03:37:24;99944.66;;;17.39;100.00
76124;BME280;65173;48.066;20.976;2023-09-19T03:40:27;99949.31;;;17.42;100.00
76124;BME280;65173;48.066;20.976;2023-09-19T03:43:32;99947.81;;;17.44;100.00
76124;BME280;65173;48.066;20.976;2023-09-19T03:46:35;99943.28;;;17.52;100.00
76124;BME280;65173;48.066;20.976;2023-09-19T03:49:38;99945.63;;;17.53;100.00
76124;BME280;65173;48.066;20.976;2023-09-19T03:52:41;99935.41;;;17.36;100.00
76124;BME280;65173;48.066;20.976;2023-09-19T03:55:45;99930.66;;;17.26;100.00
76124;BME280;65173;48.066;20.976;2023-09-19T03:58:48;99940.28;;;17.27;100.00
76124;BME280;65173;48.066;20.976;2023-09-19T04:01:51;99938.69;;;17.22;100.00
76124;BME280;65173;48.066;20.976;2023-09-19T04:04:58;99946.75;;;17.22;100.00
76124;BME280;65173;48.066;20.976;2023-09-19T04:08:01;99946.09;;;17.29;100.00
76124;BME280;65173;48.066;20.976;2023-09-19T04:11:03;99944.88;;;17.26;100.00
76124;BME280;65173;48.066;20.976;2023-09-19T04:14:06;99940.75;;;17.32;100.00
76124;BME280;65173;48.066;20.976;2023-09-19T04:17:08;99942.06;;;17.46;100.00
76124;BME280;65173;48.066;20.976;2023-09-19T04:20:13;99937.97;;;17.59;100.00
76124;BME280;65173;48.066;20.976;2023-09-19T04:23:16;99938.69;;;17.52;100.00
76124;BME280;65173;48.066;20.976;2023-09-19T04:26:19;99941.06;;;17.61;100.00
76124;BME280;65173;48.066;20.976;2023-09-19T04:29:21;99943.34;;;17.55;100.00
76124;BME280;65173;48.066;20.976;2023-09-19T04:32:24;99939.34;;;17.46;100.00
76124;BME280;65173;48.066;20.976;2023-09-19T04:35:26;99947.03;;;17.44;100.00
76124;BME280;65173;48.066;20.976;2023-09-19T04:38:29;99941.56;;;17.37;100.00
76124;BME280;65173;48.066;20.976;2023-09-19T04:41:31;99941.78;;;17.24;100.00
76124;BME280;65173;48.066;20.976;2023-09-19T04:44:34;99937.47;;;17.16;100.00
76124;BME280;65173;48.066;20.976;2023-09-19T04:47:37;99936.63;;;17.12;100.00
76124;BME280;65173;48.066;20.976;2023-09-19T04:50:41;99943.22;;;17.15;100.00
76124;BME280;65173;48.066;20.976;2023-09-19T04:53:43;99944.72;;;17.12;100.00
76124;BME280;65173;48.066;20.976;2023-09-19T04:56:46;99945.53;;;17.16;100.00
76124;BME280;65173;48.066;20.976;2023-09-19T04:59:48;99945.97;;;17.22;100.00
76124;BME280;65173;48.066;20.976;2023-09-19T05:02:52;99948.41;;;17.30;100.00
76124;BME280;65173;48.066;20.976;2023-09-19T05:05:55;99946.13;;;17.32;100.00
76124;BME280;65173;48.066;20.976;2023-09-19T05:08:57;99949.69;;;17.40;100.00
76124;BME280;65173;48.066;20.976;2023-09-19T05:12:00;99948.16;;;17.43;100.00
76124;BME280;65173;48.066;20.976;2023-09-19T05:15:03;99956.31;;;17.46;100.00
76124;BME280;65173;48.066;20.976;2023-09-19T05:18:07;99950.91;;;17.46;100.00
76124;BME280;65173;48.066;20.976;2023-09-19T05:21:09;99948.22;;;17.46;100.00
76124;BME280;65173;48.066;20.976;2023-09-19T05:24:12;99946.34;;;17.50;100.00
76124;BME280;65173;48.066;20.976;2023-09-19T05:27:16;99951.78;;;17.54;100.00
76124;BME280;65173;48.066;20.976;2023-09-19T05:30:19;99954.13;;;17.59;100.00
76124;BME280;65173;48.066;20.976;2023-09-19T05:33:22;99952.72;;;17.65;100.00
76124;BME280;65173;48.066;20.976;2023-09-19T05:36:25;99945.84;;;17.71;100.00
76124;BME280;65173;48.066;20.976;2023-09-19T05:39:27;99944.44;;;17.84;100.00
76124;BME280;65173;48.066;20.976;2023-09-19T05:42:30;99939.13;;;17.91;100.00
76124;BME280;65173;48.066;20.976;2023-09-19T05:45:32;99942.66;;;17.99;100.00
76124;BME280;65173;48.066;20.976;2023-09-19T05:48:35;99931.88;;;17.99;100.00
76124;BME280;65173;48.066;20.976;2023-09-19T05:51:38;99930.00;;;18.03;100.00
76124;BME280;65173;48.066;20.976;2023-09-19T05:54:40;99933.16;;;18.12;100.00
76124;BME280;65173;48.066;20.976;2023-09-19T05:57:49;99919.72;;;18.19;100.00
76124;BME280;65173;48.066;20.976;2023-09-19T06:00:52;99922.81;;;18.18;100.00
76124;BME280;65173;48.066;20.976;2023-09-19T06:03:55;99919.47;;;18.35;100.00
76124;BME280;65173;48.066;20.976;2023-09-19T06:06:58;99928.94;;;18.59;100.00
76124;BME280;65173;48.066;20.976;2023-09-19T06:10:00;99926.50;;;18.98;100.00
76124;BME280;65173;48.066;20.976;2023-09-19T06:13:03;99926.50;;;19.01;100.00
76124;BME280;65173;48.066;20.976;2023-09-19T06:16:12;99921.75;;;18.77;100.00
76124;BME280;65173;48.066;20.976;2023-09-19T06:19:15;99920.16;;;18.72;100.00
76124;BME280;65173;48.066;20.976;2023-09-19T06:22:18;99932.91;;;18.76;100.00
76124;BME280;65173;48.066;20.976;2023-09-19T06:25:21;99925.28;;;18.88;100.00
76124;BME280;65173;48.066;20.976;2023-09-19T06:28:24;99934.78;;;19.40;100.00
76124;BME280;65173;48.066;20.976;2023-09-19T06:31:29;99938.78;;;19.64;100.00
76124;BME280;65173;48.066;20.976;2023-09-19T06:34:33;99932.72;;;20.42;100.00
76124;BME280;65173;48.066;20.976;2023-09-19T06:37:39;99936.94;;;20.15;100.00
76124;BME280;65173;48.066;20.976;2023-09-19T06:40:43;99935.38;;;20.28;100.00
76124;BME280;65173;48.066;20.976;2023-09-19T06:43:45;99941.94;;;19.98;100.00
76124;BME280;65173;48.066;20.976;2023-09-19T06:46:48;99931.50;;;19.86;100.00
76124;BME280;65173;48.066;20.976;2023-09-19T06:49:53;99931.13;;;20.16;100.00
76124;BME280;65173;48.066;20.976;2023-09-19T06:52:56;99936.53;;;20.80;100.00
76124;BME280;65173;48.066;20.976;2023-09-19T06:56:02;99930.34;;;20.94;100.00
76124;BME280;65173;48.066;20.976;2023-09-19T06:59:05;99932.19;;;21.14;100.00
76124;BME280;65173;48.066;20.976;2023-09-19T07:02:09;99934.44;;;21.48;100.00
76124;BME280;65173;48.066;20.976;2023-09-19T07:05:12;99928.47;;;21.78;100.00
76124;BME280;65173;48.066;20.976;2023-09-19T07:08:15;99936.59;;;21.78;100.00
76124;BME280;65173;48.066;20.976;2023-09-19T07:11:18;99926.47;;;22.41;100.00
76124;BME280;65173;48.066;20.976;2023-09-19T07:14:20;99929.75;;;22.63;100.00
76124;BME280;65173;48.066;20.976;2023-09-19T07:17:23;99934.44;;;23.03;100.00
76124;BME280;65173;48.066;20.976;2023-09-19T07:20:26;99934.59;;;22.89;100.00
76124;BME280;65173;48.066;20.976;2023-09-19T07:23:29;99939.22;;;23.60;100.00
76124;BME280;65173;48.066;20.976;2023-09-19T07:26:36;99941.69;;;23.78;100.00
76124;BME280;65173;48.066;20.976;2023-09-19T07:29:39;99938.59;;;23.45;100.00
76124;BME280;65173;48.066;20.976;2023-09-19T07:32:41;99931.38;;;23.32;100.00
76124;BME280;65173;48.066;20.976;2023-09-19T07:35:47;99941.25;;;22.81;100.00
76124;BME280;65173;48.066;20.976;2023-09-19T07:38:50;99939.50;;;23.01;100.00
76124;BME280;65173;48.066;20.976;2023-09-19T07:41:52;99946.69;;;23.18;100.00
76124;BME280;65173;48.066;20.976;2023-09-19T07:44:56;99948.47;;;23.32;100.00
76124;BME280;65173;48.066;20.976;2023-09-19T07:47:59;99952.19;;;23.11;100.00
76124;BME280;65173;48.066;20.976;2023-09-19T07:51:07;99952.56;;;22.28;100.00
76124;BME280;65173;48.066;20.976;2023-09-19T07:54:16;99950.03;;;21.99;100.00
76124;BME280;65173;48.066;20.976;2023-09-19T07:57:32;99944.84;;;22.23;100.00
76124;BME280;65173;48.066;20.976;2023-09-19T08:00:36;99946.13;;;22.04;100.00
76124;BME280;65173;48.066;20.976;2023-09-19T08:03:39;99935.25;;;22.07;100.00
76124;BME280;65173;48.066;20.976;2023-09-19T08:06:46;99945.53;;;22.37;100.00
76124;BME280;65173;48.066;20.976;2023-09-19T08:09:48;99937.44;;;22.27;100.00
76124;BME280;65173;48.066;20.976;2023-09-19T08:12:51;99930.31;;;22.43;100.00
76124;BME280;65173;48.066;20.976;2023-09-19T08:15:58;99944.16;;;22.11;100.00
76124;BME280;65173;48.066;20.976;2023-09-19T08:19:01;99941.53;;;21.94;100.00
76124;BME280;65173;48.066;20.976;2023-09-19T08:22:03;99934.66;;;21.78;100.00
76124;BME280;65173;48.066;20.976;2023-09-19T08:25:06;99941.63;;;21.79;100.00
76124;BME280;65173;48.066;20.976;2023-09-19T08:28:10;99946.97;;;22.01;100.00
76124;BME280;65173;48.066;20.976;2023-09-19T08:31:16;99944.34;;;21.79;100.00
76124;BME280;65173;48.066;20.976;2023-09-19T08:34:19;99941.34;;;21.60;100.00
76124;BME280;65173;48.066;20.976;2023-09-19T08:37:21;99934.38;;;21.62;100.00
76124;BME280;65173;48.066;20.976;2023-09-19T08:40:24;99934.38;;;21.55;100.00
76124;BME280;65173;48.066;20.976;2023-09-19T08:43:27;99932.06;;;21.57;100.00
76124;BME280;65173;48.066;20.976;2023-09-19T08:46:30;99937.78;;;21.70;100.00
76124;BME280;65173;48.066;20.976;2023-09-19T08:50:01;99929.75;;;21.52;100.00
76124;BME280;65173;48.066;20.976;2023-09-19T08:53:10;99927.03;;;21.56;100.00
76124;BME280;65173;48.066;20.976;2023-09-19T08:56:17;99929.28;;;21.68;100.00
76124;BME280;65173;48.066;20.976;2023-09-19T09:02:29;99923.44;;;21.76;100.00
76124;BME280;65173;48.066;20.976;2023-09-19T09:05:35;99923.44;;;21.73;100.00
76124;BME280;65173;48.066;20.976;2023-09-19T09:08:39;99922.28;;;21.70;100.00
76124;BME280;65173;48.066;20.976;2023-09-19T09:11:42;99920.81;;;21.59;100.00
76124;BME280;65173;48.066;20.976;2023-09-19T09:14:45;99919.34;;;21.47;100.00
76124;BME280;65173;48.066;20.976;2023-09-19T09:17:52;99915.06;;;21.50;100.00
76124;BME280;65173;48.066;20.976;2023-09-19T09:20:58;99915.06;;;21.50;100.00
76124;BME280;65173;48.066;20.976;2023-09-19T09:24:30;99919.75;;;21.35;100.00
76124;BME280;65173;48.066;20.976;2023-09-19T09:27:36;99920.53;;;21.32;100.00
76124;BME280;65173;48.066;20.976;2023-09-19T09:30:38;99927.16;;;21.31;100.00
76124;BME280;65173;48.066;20.976;2023-09-19T09:33:41;99924.03;;;21.32;100.00
76124;BME280;65173;48.066;20.976;2023-09-19T09:36:48;99926.72;;;21.32;100.00
76124;BME280;65173;48.066;20.976;2023-09-19T09:39:54;99918.19;;;21.44;100.00
76124;BME280;65173;48.066;20.976;2023-09-19T09:42:58;99922.44;;;21.49;100.00
76124;BME280;65173;48.066;20.976;2023-09-19T09:46:10;99923.13;;;21.60;100.00
76124;BME280;65173;48.066;20.976;2023-09-19T09:49:33;99917.31;;;21.62;100.00
76124;BME280;65173;48.066;20.976;2023-09-19T09:52:46;99926.97;;;21.66;100.00
76124;BME280;65173;48.066;20.976;2023-09-19T09:56:02;99923.91;;;21.61;100.00
76124;BME280;65173;48.066;20.976;2023-09-19T09:59:08;99923.22;;;21.46;100.00
76124;BME280;65173;48.066;20.976;2023-09-19T10:02:11;99929.34;;;21.57;100.00
76124;BME280;65173;48.066;20.976;2023-09-19T10:05:20;99929.38;;;21.50;100.00
76124;BME280;65173;48.066;20.976;2023-09-19T10:08:22;99939.88;;;21.37;100.00
76124;BME280;65173;48.066;20.976;2023-09-19T10:11:25;99933.31;;;21.35;100.00
76124;BME280;65173;48.066;20.976;2023-09-19T10:14:35;99935.28;;;21.31;100.00
76124;BME280;65173;48.066;20.976;2023-09-19T10:17:42;99950.81;;;21.09;100.00
76124;BME280;65173;48.066;20.976;2023-09-19T10:20:46;99955.13;;;20.85;100.00
76124;BME280;65173;48.066;20.976;2023-09-19T10:23:51;99947.75;;;20.82;100.00
76124;BME280;65173;48.066;20.976;2023-09-19T10:26:59;99958.63;;;20.43;100.00
76124;BME280;65173;48.066;20.976;2023-09-19T10:30:05;99959.81;;;20.42;100.00
76124;BME280;65173;48.066;20.976;2023-09-19T10:33:09;99960.56;;;20.50;100.00
76124;BME280;65173;48.066;20.976;2023-09-19T10:36:12;99960.97;;;20.37;100.00
76124;BME280;65173;48.066;20.976;2023-09-19T10:39:16;99963.59;;;20.09;100.00
76124;BME280;65173;48.066;20.976;2023-09-19T10:42:23;99958.97;;;20.13;100.00
76124;BME280;65173;48.066;20.976;2023-09-19T10:45:31;99953.94;;;20.01;100.00
76124;BME280;65173;48.066;20.976;2023-09-19T10:48:34;99963.56;;;19.88;100.00
76124;BME280;65173;48.066;20.976;2023-09-19T10:51:41;99961.25;;;19.97;100.00
76124;BME280;65173;48.066;20.976;2023-09-19T10:54:46;99954.31;;;19.99;100.00
76124;BME280;65173;48.066;20.976;2023-09-19T10:57:53;99952.00;;;19.98;100.00
76124;BME280;65173;48.066;20.976;2023-09-19T11:00:57;99958.56;;;20.07;100.00
76124;BME280;65173;48.066;20.976;2023-09-19T11:04:34;99957.41;;;20.01;100.00
76124;BME280;65173;48.066;20.976;2023-09-19T11:07:58;99956.63;;;19.97;100.00
76124;BME280;65173;48.066;20.976;2023-09-19T11:11:02;99953.16;;;20.07;100.00
76124;BME280;65173;48.066;20.976;2023-09-19T11:17:38;99959.75;;;20.35;100.00
76124;BME280;65173;48.066;20.976;2023-09-19T11:20:45;99965.16;;;20.31;100.00
76124;BME280;65173;48.066;20.976;2023-09-19T11:27:17;99951.28;;;20.47;100.00
76124;BME280;65173;48.066;20.976;2023-09-19T11:30:27;99961.28;;;20.18;100.00
76124;BME280;65173;48.066;20.976;2023-09-19T11:33:32;99948.94;;;20.31;100.00
76124;BME280;65173;48.066;20.976;2023-09-19T11:36:43;99948.19;;;20.56;100.00
76124;BME280;65173;48.066;20.976;2023-09-19T11:40:07;99936.56;;;20.62;100.00
76124;BME280;65173;48.066;20.976;2023-09-19T11:43:29;99927.97;;;21.03;100.00
76124;BME280;65173;48.066;20.976;2023-09-19T11:46:33;99932.19;;;21.25;100.00
76124;BME280;65173;48.066;20.976;2023-09-19T11:49:40;99931.63;;;21.66;100.00
76124;BME280;65173;48.066;20.976;2023-09-19T11:52:43;99928.88;;;21.73;100.00
76124;BME280;65173;48.066;20.976;2023-09-19T11:55:47;99932.72;;;21.79;100.00
76124;BME280;65173;48.066;20.976;2023-09-19T11:58:52;99935.63;;;21.40;100.00
76124;BME280;65173;48.066;20.976;2023-09-19T12:02:01;99939.44;;;21.53;100.00
76124;BME280;65173;48.066;20.976;2023-09-19T12:05:06;99943.75;;;21.43;100.00
76124;BME280;65173;48.066;20.976;2023-09-19T12:08:09;99951.97;;;21.22;100.00
76124;BME280;65173;48.066;20.976;2023-09-19T12:11:17;99956.16;;;21.34;100.00
76124;BME280;65173;48.066;20.976;2023-09-19T12:14:24;99965.13;;;21.20;100.00
76124;BME280;65173;48.066;20.976;2023-09-19T12:17:41;99969.00;;;21.01;100.00
76124;BME280;65173;48.066;20.976;2023-09-19T12:20:46;99976.81;;;20.78;100.00
76124;BME280;65173;48.066;20.976;2023-09-19T12:27:14;99986.88;;;20.77;100.00
76124;BME280;65173;48.066;20.976;2023-09-19T12:30:16;99995.75;;;20.71;100.00
76124;BME280;65173;48.066;20.976;2023-09-19T12:33:29;100005.44;;;20.54;100.00
76124;BME280;65173;48.066;20.976;2023-09-19T12:36:32;100014.31;;;20.37;100.00
76124;BME280;65173;48.066;20.976;2023-09-19T12:39:44;100009.28;;;20.42;100.00
76124;BME280;65173;48.066;20.976;2023-09-19T12:42:52;100010.06;;;20.39;100.00
76124;BME280;65173;48.066;20.976;2023-09-19T12:45:57;100002.69;;;20.33;100.00
76124;BME280;65173;48.066;20.976;2023-09-19T12:49:19;100004.66;;;20.39;100.00
76124;BME280;65173;48.066;20.976;2023-09-19T12:52:21;99993.81;;;20.61;100.00
76124;BME280;65173;48.066;20.976;2023-09-19T12:55:28;99988.41;;;20.86;100.00
76124;BME280;65173;48.066;20.976;2023-09-19T12:58:33;99991.47;;;21.02;100.00
76124;BME280;65173;48.066;20.976;2023-09-19T13:01:37;100001.13;;;21.10;100.00
76124;BME280;65173;48.066;20.976;2023-09-19T13:04:52;100010.06;;;20.64;100.00
76124;BME280;65173;48.066;20.976;2023-09-19T13:07:55;100022.84;;;20.60;100.00
76124;BME280;65173;48.066;20.976;2023-09-19T13:11:07;100031.72;;;20.47;100.00
76124;BME280;65173;48.066;20.976;2023-09-19T13:14:19;100032.50;;;20.61;100.00
76124;BME280;65173;48.066;20.976;2023-09-19T13:17:21;100029.81;;;20.65;100.00
76124;BME280;65173;48.066;20.976;2023-09-19T13:20:26;100029.81;;;20.54;100.00
76124;BME280;65173;48.066;20.976;2023-09-19T13:23:34;100046.03;;;20.51;100.00
76124;BME280;65173;48.066;20.976;2023-09-19T13:26:38;100050.63;;;20.29;100.00
76124;BME280;65173;48.066;20.976;2023-09-19T13:29:41;100064.13;;;20.15;100.00
76124;BME280;65173;48.066;20.976;2023-09-19T13:32:44;100064.59;;;20.45;100.00
76124;BME280;65173;48.066;20.976;2023-09-19T13:35:47;100068.78;;;20.18;100.00
76124;BME280;65173;48.066;20.976;2023-09-19T13:38:50;100081.47;;;19.99;100.00
76124;BME280;65173;48.066;20.976;2023-09-19T13:41:55;100089.19;;;19.97;100.00
76124;BME280;65173;48.066;20.976;2023-09-19T13:44:57;100093.06;;;20.07;100.00
76124;BME280;65173;48.066;20.976;2023-09-19T13:48:00;100095.72;;;19.89;100.00
76124;BME280;65173;48.066;20.976;2023-09-19T13:51:02;100103.53;;;20.05;100.00
76124;BME280;65173;48.066;20.976;2023-09-19T13:54:07;100104.69;;;20.07;100.00
76124;BME280;65173;48.066;20.976;2023-09-19T13:57:10;100110.44;;;19.99;100.00
76124;BME280;65173;48.066;20.976;2023-09-19T14:00:13;100112.06;;;20.14;100.00
76124;BME280;65173;48.066;20.976;2023-09-19T14:03:18;100100.75;;;19.87;100.00
76124;BME280;65173;48.066;20.976;2023-09-19T14:06:23;100107.22;;;19.68;100.00
76124;BME280;65173;48.066;20.976;2023-09-19T14:09:26;100097.63;;;19.82;100.00
76124;BME280;65173;48.066;20.976;2023-09-19T14:12:29;100113.81;;;19.74;100.00
76124;BME280;65173;48.066;20.976;2023-09-19T14:15:32;100117.59;;;19.63;100.00
76124;BME280;65173;48.066;20.976;2023-09-19T14:18:40;100113.03;;;19.70;100.00
76124;BME280;65173;48.066;20.976;2023-09-19T14:21:43;100109.13;;;19.71;100.00
76124;BME280;65173;48.066;20.976;2023-09-19T14:24:45;100109.22;;;19.82;100.00
76124;BME280;65173;48.066;20.976;2023-09-19T14:27:48;100114.66;;;19.86;100.00
76124;BME280;65173;48.066;20.976;2023-09-19T14:30:50;100125.78;;;19.77;100.00
76124;BME280;65173;48.066;20.976;2023-09-19T14:33:57;100130.50;;;19.87;100.00
76124;BME280;65173;48.066;20.976;2023-09-19T14:37:01;100126.59;;;19.81;100.00
76124;BME280;65173;48.066;20.976;2023-09-19T14:40:04;100138.25;;;19.92;100.00
76124;BME280;65173;48.066;20.976;2023-09-19T14:43:10;100136.66;;;19.84;100.00
76124;BME280;65173;48.066;20.976;2023-09-19T14:46:13;100142.84;;;19.85;100.00
76124;BME280;65173;48.066;20.976;2023-09-19T14:49:16;100139.41;;;19.88;100.00
76124;BME280;65173;48.066;20.976;2023-09-19T14:52:19;100144.03;;;19.91;100.00
76124;BME280;65173;48.066;20.976;2023-09-19T14:55:21;100147.19;;;20.00;100.00
76124;BME280;65173;48.066;20.976;2023-09-19T14:58:25;100141.00;;;20.06;100.00
76124;BME280;65173;48.066;20.976;2023-09-19T15:01:28;100140.19;;;19.95;100.00
76124;BME280;65173;48.066;20.976;2023-09-19T15:04:31;100136.38;;;20.03;100.00
76124;BME280;65173;48.066;20.976;2023-09-19T15:07:35;100153.34;;;19.97;100.00
76124;BME280;65173;48.066;20.976;2023-09-19T15:10:39;100154.47;;;19.92;100.00
76124;BME280;65173;48.066;20.976;2023-09-19T15:13:41;100151.75;;;19.89;100.00
76124;BME280;65173;48.066;20.976;2023-09-19T15:16:44;100164.06;;;19.79;100.00
76124;BME280;65173;48.066;20.976;2023-09-19T15:19:46;100162.16;;;19.83;100.00
76124;BME280;65173;48.066;20.976;2023-09-19T15:22:51;100155.53;;;19.70;100.00
76124;BME280;65173;48.066;20.976;2023-09-19T15:25:54;100167.84;;;19.64;100.00
76124;BME280;65173;48.066;20.976;2023-09-19T15:28:58;100168.97;;;19.63;100.00
76124;BME280;65173;48.066;20.976;2023-09-19T15:32:02;100173.66;;;19.66;100.00
76124;BME280;65173;48.066;20.976;2023-09-19T15:35:05;100182.09;;;19.61;100.00
76124;BME280;65173;48.066;20.976;2023-09-19T15:38:08;100184.28;;;19.45;100.00
76124;BME280;65173;48.066;20.976;2023-09-19T15:41:12;100192.38;;;19.45;100.00
76124;BME280;65173;48.066;20.976;2023-09-19T15:44:17;100189.16;;;19.28;100.00
76124;BME280;65173;48.066;20.976;2023-09-19T15:47:20;100198.69;;;19.15;100.00
76124;BME280;65173;48.066;20.976;2023-09-19T15:50:22;100197.16;;;19.14;100.00
76124;BME280;65173;48.066;20.976;2023-09-19T15:53:25;100200.69;;;19.22;100.00
76124;BME280;65173;48.066;20.976;2023-09-19T15:56:33;100205.97;;;19.07;100.00
76124;BME280;65173;48.066;20.976;2023-09-19T15:59:37;100212.19;;;19.12;100.00
76124;BME280;65173;48.066;20.976;2023-09-19T16:02:39;100204.03;;;19.08;100.00
76124;BME280;65173;48.066;20.976;2023-09-19T16:05:42;100203.16;;;18.97;100.00
76124;BME280;65173;48.066;20.976;2023-09-19T16:08:48;100209.03;;;19.06;100.00